sensor_id;sensor_type;location;lat;lon;timestamp;temperature;humidity
73572;DHT22;61854;48.510;-2.770;2023-04-03T00:01:04;9.50;78.80
73572;DHT22;61854;48.510;-2.770;2023-04-03T00:03:30;9.60;78.80
73572;DHT22;61854;48.510;-2.770;2023-04-03T00:05:55;9.50;78.70
73572;DHT22;61854;48.510;-2.770;2023-04-03T00:08:21;9.60;78.80
73572;DHT22;61854;48.510;-2.770;2023-04-03T00:10:46;9.50;78.50
73572;DHT22;61854;48.510;-2.770;2023-04-03T00:13:12;9.50;78.80
73572;DHT22;61854;48.510;-2.770;2023-04-03T00:15:37;9.60;78.90
73572;DHT22;61854;48.510;-2.770;2023-04-03T00:18:03;9.60;78.80
73572;DHT22;61854;48.510;-2.770;2023-04-03T00:20:29;9.50;78.50
73572;DHT22;61854;48.510;-2.770;2023-04-03T00:22:54;9.50;78.30
73572;DHT22;61854;48.510;-2.770;2023-04-03T00:25:20;9.50;78.30
73572;DHT22;61854;48.510;-2.770;2023-04-03T00:27:45;9.40;78.30
73572;DHT22;61854;48.510;-2.770;2023-04-03T00:30:13;9.40;78.40
73572;DHT22;61854;48.510;-2.770;2023-04-03T00:32:38;9.30;78.50
73572;DHT22;61854;48.510;-2.770;2023-04-03T00:35:04;9.30;78.70
73572;DHT22;61854;48.510;-2.770;2023-04-03T00:37:30;9.20;78.90
73572;DHT22;61854;48.510;-2.770;2023-04-03T00:39:56;9.10;79.20
73572;DHT22;61854;48.510;-2.770;2023-04-03T00:42:21;9.10;79.70
73572;DHT22;61854;48.510;-2.770;2023-04-03T00:47:13;9.00;79.40
73572;DHT22;61854;48.510;-2.770;2023-04-03T00:49:41;9.00;79.20
73572;DHT22;61854;48.510;-2.770;2023-04-03T00:52:09;8.90;79.00
73572;DHT22;61854;48.510;-2.770;2023-04-03T00:54:35;8.90;79.00
73572;DHT22;61854;48.510;-2.770;2023-04-03T00:57:01;8.90;78.80
73572;DHT22;61854;48.510;-2.770;2023-04-03T00:59:30;8.90;78.90
73572;DHT22;61854;48.510;-2.770;2023-04-03T01:01:57;8.90;79.00
73572;DHT22;61854;48.510;-2.770;2023-04-03T01:04:29;8.90;79.20
73572;DHT22;61854;48.510;-2.770;2023-04-03T01:06:56;8.90;79.20
73572;DHT22;61854;48.510;-2.770;2023-04-03T01:09:23;8.90;79.30
73572;DHT22;61854;48.510;-2.770;2023-04-03T01:11:48;8.90;79.10
73572;DHT22;61854;48.510;-2.770;2023-04-03T01:14:14;8.80;79.20
73572;DHT22;61854;48.510;-2.770;2023-04-03T01:16:39;8.80;79.50
73572;DHT22;61854;48.510;-2.770;2023-04-03T01:19:06;8.80;79.60
73572;DHT22;61854;48.510;-2.770;2023-04-03T01:21:41;8.80;79.80
73572;DHT22;61854;48.510;-2.770;2023-04-03T01:26:51;8.70;80.20
73572;DHT22;61854;48.510;-2.770;2023-04-03T01:29:17;8.80;80.40
73572;DHT22;61854;48.510;-2.770;2023-04-03T01:31:52;8.70;80.30
73572;DHT22;61854;48.510;-2.770;2023-04-03T01:34:19;8.70;80.50
73572;DHT22;61854;48.510;-2.770;2023-04-03T01:36:44;8.70;80.80
73572;DHT22;61854;48.510;-2.770;2023-04-03T01:39:10;8.70;81.20
73572;DHT22;61854;48.510;-2.770;2023-04-03T01:41:36;8.70;81.30
73572;DHT22;61854;48.510;-2.770;2023-04-03T01:44:01;8.80;81.50
73572;DHT22;61854;48.510;-2.770;2023-04-03T01:46:27;8.80;81.50
73572;DHT22;61854;48.510;-2.770;2023-04-03T01:48:53;8.80;81.50
73572;DHT22;61854;48.510;-2.770;2023-04-03T01:51:18;8.90;81.70
73572;DHT22;61854;48.510;-2.770;2023-04-03T01:53:44;8.90;82.10
73572;DHT22;61854;48.510;-2.770;2023-04-03T01:56:10;8.90;82.20
73572;DHT22;61854;48.510;-2.770;2023-04-03T01:58:35;8.90;83.40
73572;DHT22;61854;48.510;-2.770;2023-04-03T02:01:01;8.90;84.60
73572;DHT22;61854;48.510;-2.770;2023-04-03T02:03:26;8.80;85.40
73572;DHT22;61854;48.510;-2.770;2023-04-03T02:05:52;8.80;86.00
73572;DHT22;61854;48.510;-2.770;2023-04-03T02:08:18;8.70;86.60
73572;DHT22;61854;48.510;-2.770;2023-04-03T02:10:44;8.70;87.10
73572;DHT22;61854;48.510;-2.770;2023-04-03T02:13:10;8.60;87.50
73572;DHT22;61854;48.510;-2.770;2023-04-03T02:15:37;8.60;87.80
73572;DHT22;61854;48.510;-2.770;2023-04-03T02:18:03;8.50;88.00
73572;DHT22;61854;48.510;-2.770;2023-04-03T02:20:28;8.40;88.20
73572;DHT22;61854;48.510;-2.770;2023-04-03T02:22:54;8.40;88.50
73572;DHT22;61854;48.510;-2.770;2023-04-03T02:25:19;8.30;88.60
73572;DHT22;61854;48.510;-2.770;2023-04-03T02:27:45;8.30;88.90
73572;DHT22;61854;48.510;-2.770;2023-04-03T02:30:13;8.20;89.20
73572;DHT22;61854;48.510;-2.770;2023-04-03T02:32:40;8.10;89.60
73572;DHT22;61854;48.510;-2.770;2023-04-03T02:35:06;8.10;90.00
73572;DHT22;61854;48.510;-2.770;2023-04-03T02:37:31;8.00;90.10
73572;DHT22;61854;48.510;-2.770;2023-04-03T02:39:57;8.00;90.30
73572;DHT22;61854;48.510;-2.770;2023-04-03T02:42:23;7.90;90.60
73572;DHT22;61854;48.510;-2.770;2023-04-03T02:44:48;7.90;90.60
73572;DHT22;61854;48.510;-2.770;2023-04-03T02:47:14;8.00;90.70
73572;DHT22;61854;48.510;-2.770;2023-04-03T02:49:39;8.00;90.60
73572;DHT22;61854;48.510;-2.770;2023-04-03T02:52:05;8.00;90.60
73572;DHT22;61854;48.510;-2.770;2023-04-03T02:54:30;8.00;90.60
73572;DHT22;61854;48.510;-2.770;2023-04-03T02:56:56;8.10;90.60
73572;DHT22;61854;48.510;-2.770;2023-04-03T02:59:22;8.10;90.70
73572;DHT22;61854;48.510;-2.770;2023-04-03T03:01:48;8.20;90.60
73572;DHT22;61854;48.510;-2.770;2023-04-03T03:04:14;8.20;90.50
73572;DHT22;61854;48.510;-2.770;2023-04-03T03:06:39;8.30;90.30
73572;DHT22;61854;48.510;-2.770;2023-04-03T03:09:05;8.30;90.20
73572;DHT22;61854;48.510;-2.770;2023-04-03T03:11:31;8.30;90.20
73572;DHT22;61854;48.510;-2.770;2023-04-03T03:13:56;8.30;90.10
73572;DHT22;61854;48.510;-2.770;2023-04-03T03:16:22;8.30;90.10
73572;DHT22;61854;48.510;-2.770;2023-04-03T03:18:47;8.30;90.10
73572;DHT22;61854;48.510;-2.770;2023-04-03T03:21:13;8.30;90.00
73572;DHT22;61854;48.510;-2.770;2023-04-03T03:23:39;8.30;89.70
73572;DHT22;61854;48.510;-2.770;2023-04-03T03:26:05;8.30;89.90
73572;DHT22;61854;48.510;-2.770;2023-04-03T03:28:31;8.30;89.90
73572;DHT22;61854;48.510;-2.770;2023-04-03T03:30:57;8.30;89.50
73572;DHT22;61854;48.510;-2.770;2023-04-03T03:33:23;8.40;89.40
73572;DHT22;61854;48.510;-2.770;2023-04-03T03:35:49;8.40;89.30
73572;DHT22;61854;48.510;-2.770;2023-04-03T03:38:15;8.40;89.20
73572;DHT22;61854;48.510;-2.770;2023-04-03T03:40:40;8.40;89.10
73572;DHT22;61854;48.510;-2.770;2023-04-03T03:43:06;8.40;88.90
73572;DHT22;61854;48.510;-2.770;2023-04-03T03:45:31;8.30;88.70
73572;DHT22;61854;48.510;-2.770;2023-04-03T03:47:57;8.30;88.40
73572;DHT22;61854;48.510;-2.770;2023-04-03T03:50:22;8.30;88.40
73572;DHT22;61854;48.510;-2.770;2023-04-03T03:52:48;8.40;88.40
73572;DHT22;61854;48.510;-2.770;2023-04-03T03:55:14;8.40;88.50
73572;DHT22;61854;48.510;-2.770;2023-04-03T03:57:39;8.40;88.10
73572;DHT22;61854;48.510;-2.770;2023-04-03T04:00:05;8.40;87.10
73572;DHT22;61854;48.510;-2.770;2023-04-03T04:02:32;8.40;86.90
73572;DHT22;61854;48.510;-2.770;2023-04-03T04:04:58;8.40;86.90
73572;DHT22;61854;48.510;-2.770;2023-04-03T04:07:23;8.40;87.00
73572;DHT22;61854;48.510;-2.770;2023-04-03T04:09:49;8.40;85.70
73572;DHT22;61854;48.510;-2.770;2023-04-03T04:12:14;8.40;83.30
73572;DHT22;61854;48.510;-2.770;2023-04-03T04:14:41;8.40;81.70
73572;DHT22;61854;48.510;-2.770;2023-04-03T04:17:06;8.40;81.30
73572;DHT22;61854;48.510;-2.770;2023-04-03T04:19:32;8.40;81.10
73572;DHT22;61854;48.510;-2.770;2023-04-03T04:21:58;8.50;82.00
73572;DHT22;61854;48.510;-2.770;2023-04-03T04:24:23;8.50;81.40
73572;DHT22;61854;48.510;-2.770;2023-04-03T04:26:49;8.50;82.60
73572;DHT22;61854;48.510;-2.770;2023-04-03T04:29:15;8.50;81.70
73572;DHT22;61854;48.510;-2.770;2023-04-03T04:31:40;8.60;81.70
73572;DHT22;61854;48.510;-2.770;2023-04-03T04:34:06;8.60;81.40
73572;DHT22;61854;48.510;-2.770;2023-04-03T04:36:31;8.50;81.10
73572;DHT22;61854;48.510;-2.770;2023-04-03T04:38:57;8.50;80.80
73572;DHT22;61854;48.510;-2.770;2023-04-03T04:41:23;8.40;80.00
73572;DHT22;61854;48.510;-2.770;2023-04-03T04:43:50;8.40;79.50
73572;DHT22;61854;48.510;-2.770;2023-04-03T04:46:16;8.30;79.40
73572;DHT22;61854;48.510;-2.770;2023-04-03T04:48:41;8.30;79.30
73572;DHT22;61854;48.510;-2.770;2023-04-03T04:51:07;8.30;79.70
73572;DHT22;61854;48.510;-2.770;2023-04-03T04:53:33;8.30;80.10
73572;DHT22;61854;48.510;-2.770;2023-04-03T04:55:58;8.40;80.40
73572;DHT22;61854;48.510;-2.770;2023-04-03T04:58:24;8.40;80.60
73572;DHT22;61854;48.510;-2.770;2023-04-03T05:01:04;8.40;80.60
73572;DHT22;61854;48.510;-2.770;2023-04-03T05:03:30;8.40;80.80
73572;DHT22;61854;48.510;-2.770;2023-04-03T05:05:56;8.40;81.00
73572;DHT22;61854;48.510;-2.770;2023-04-03T05:08:21;8.40;81.40
73572;DHT22;61854;48.510;-2.770;2023-04-03T05:10:47;8.40;81.50
73572;DHT22;61854;48.510;-2.770;2023-04-03T05:13:13;8.40;81.10
73572;DHT22;61854;48.510;-2.770;2023-04-03T05:15:38;8.30;81.30
73572;DHT22;61854;48.510;-2.770;2023-04-03T05:18:04;8.30;81.30
73572;DHT22;61854;48.510;-2.770;2023-04-03T05:20:30;8.30;81.50
73572;DHT22;61854;48.510;-2.770;2023-04-03T05:22:56;8.40;81.70
73572;DHT22;61854;48.510;-2.770;2023-04-03T05:25:21;8.40;81.70
73572;DHT22;61854;48.510;-2.770;2023-04-03T05:27:47;8.40;81.80
73572;DHT22;61854;48.510;-2.770;2023-04-03T05:30:12;8.40;81.60
73572;DHT22;61854;48.510;-2.770;2023-04-03T05:32:38;8.40;81.10
73572;DHT22;61854;48.510;-2.770;2023-04-03T05:35:04;8.40;80.80
73572;DHT22;61854;48.510;-2.770;2023-04-03T05:37:30;8.40;80.60
73572;DHT22;61854;48.510;-2.770;2023-04-03T05:39:56;8.40;80.50
73572;DHT22;61854;48.510;-2.770;2023-04-03T05:42:22;8.40;80.80
73572;DHT22;61854;48.510;-2.770;2023-04-03T05:44:47;8.30;80.80
73572;DHT22;61854;48.510;-2.770;2023-04-03T05:47:15;8.40;81.00
73572;DHT22;61854;48.510;-2.770;2023-04-03T05:49:41;8.30;81.20
73572;DHT22;61854;48.510;-2.770;2023-04-03T05:52:17;8.40;81.10
73572;DHT22;61854;48.510;-2.770;2023-04-03T05:54:45;8.40;80.90
73572;DHT22;61854;48.510;-2.770;2023-04-03T05:57:14;8.30;80.60
73572;DHT22;61854;48.510;-2.770;2023-04-03T05:59:43;8.40;80.60
73572;DHT22;61854;48.510;-2.770;2023-04-03T06:02:13;8.40;80.60
73572;DHT22;61854;48.510;-2.770;2023-04-03T06:04:39;8.40;79.90
73572;DHT22;61854;48.510;-2.770;2023-04-03T06:07:04;8.30;79.20
73572;DHT22;61854;48.510;-2.770;2023-04-03T06:09:30;8.30;79.60
73572;DHT22;61854;48.510;-2.770;2023-04-03T06:11:56;8.20;79.80
73572;DHT22;61854;48.510;-2.770;2023-04-03T06:14:24;8.20;80.50
73572;DHT22;61854;48.510;-2.770;2023-04-03T06:16:50;8.20;80.30
73572;DHT22;61854;48.510;-2.770;2023-04-03T06:19:15;8.20;80.70
73572;DHT22;61854;48.510;-2.770;2023-04-03T06:21:41;8.30;80.80
73572;DHT22;61854;48.510;-2.770;2023-04-03T06:24:07;8.40;81.20
73572;DHT22;61854;48.510;-2.770;2023-04-03T06:26:33;8.50;80.80
73572;DHT22;61854;48.510;-2.770;2023-04-03T06:28:59;8.50;80.60
73572;DHT22;61854;48.510;-2.770;2023-04-03T06:31:25;8.60;80.50
73572;DHT22;61854;48.510;-2.770;2023-04-03T06:33:51;8.60;80.70
73572;DHT22;61854;48.510;-2.770;2023-04-03T06:36:17;8.60;80.40
73572;DHT22;61854;48.510;-2.770;2023-04-03T06:38:45;8.60;80.40
73572;DHT22;61854;48.510;-2.770;2023-04-03T06:41:11;8.60;80.00
73572;DHT22;61854;48.510;-2.770;2023-04-03T06:43:37;8.60;80.10
73572;DHT22;61854;48.510;-2.770;2023-04-03T06:46:02;8.60;80.20
73572;DHT22;61854;48.510;-2.770;2023-04-03T06:48:28;8.60;80.20
73572;DHT22;61854;48.510;-2.770;2023-04-03T06:50:54;8.70;79.80
73572;DHT22;61854;48.510;-2.770;2023-04-03T06:53:20;8.70;79.90
73572;DHT22;61854;48.510;-2.770;2023-04-03T06:55:49;8.70;79.90
73572;DHT22;61854;48.510;-2.770;2023-04-03T06:58:15;8.70;79.90
73572;DHT22;61854;48.510;-2.770;2023-04-03T07:00:42;8.80;79.40
73572;DHT22;61854;48.510;-2.770;2023-04-03T07:03:08;8.80;78.60
73572;DHT22;61854;48.510;-2.770;2023-04-03T07:05:35;8.80;77.00
73572;DHT22;61854;48.510;-2.770;2023-04-03T07:08:02;8.70;77.30
73572;DHT22;61854;48.510;-2.770;2023-04-03T07:10:30;8.70;77.00
73572;DHT22;61854;48.510;-2.770;2023-04-03T07:12:57;8.70;77.50
73572;DHT22;61854;48.510;-2.770;2023-04-03T07:15:25;8.60;77.70
73572;DHT22;61854;48.510;-2.770;2023-04-03T07:17:52;8.60;77.90
73572;DHT22;61854;48.510;-2.770;2023-04-03T07:20:20;8.60;77.90
73572;DHT22;61854;48.510;-2.770;2023-04-03T07:22:48;8.60;77.30
73572;DHT22;61854;48.510;-2.770;2023-04-03T07:25:15;8.60;77.80
73572;DHT22;61854;48.510;-2.770;2023-04-03T07:27:42;8.60;77.90
73572;DHT22;61854;48.510;-2.770;2023-04-03T07:30:08;8.60;78.30
73572;DHT22;61854;48.510;-2.770;2023-04-03T07:32:34;8.50;78.40
73572;DHT22;61854;48.510;-2.770;2023-04-03T07:35:00;8.50;78.90
73572;DHT22;61854;48.510;-2.770;2023-04-03T07:37:26;8.60;78.70
73572;DHT22;61854;48.510;-2.770;2023-04-03T07:39:53;8.60;77.40
73572;DHT22;61854;48.510;-2.770;2023-04-03T07:42:20;8.50;77.50
73572;DHT22;61854;48.510;-2.770;2023-04-03T07:44:46;8.50;76.90
73572;DHT22;61854;48.510;-2.770;2023-04-03T07:47:12;8.50;76.60
73572;DHT22;61854;48.510;-2.770;2023-04-03T07:49:41;8.50;77.10
73572;DHT22;61854;48.510;-2.770;2023-04-03T07:52:07;8.60;76.90
73572;DHT22;61854;48.510;-2.770;2023-04-03T07:54:34;8.70;76.60
73572;DHT22;61854;48.510;-2.770;2023-04-03T07:57:00;8.70;74.90
73572;DHT22;61854;48.510;-2.770;2023-04-03T07:59:26;8.70;74.90
73572;DHT22;61854;48.510;-2.770;2023-04-03T08:01:52;8.70;74.80
73572;DHT22;61854;48.510;-2.770;2023-04-03T08:04:17;8.60;74.80
73572;DHT22;61854;48.510;-2.770;2023-04-03T08:06:43;8.60;75.00
73572;DHT22;61854;48.510;-2.770;2023-04-03T08:09:09;8.70;75.30
73572;DHT22;61854;48.510;-2.770;2023-04-03T08:11:34;8.70;74.60
73572;DHT22;61854;48.510;-2.770;2023-04-03T08:14:01;8.70;74.40
73572;DHT22;61854;48.510;-2.770;2023-04-03T08:16:27;8.80;74.70
73572;DHT22;61854;48.510;-2.770;2023-04-03T08:18:53;8.90;74.30
73572;DHT22;61854;48.510;-2.770;2023-04-03T08:21:19;8.90;73.90
73572;DHT22;61854;48.510;-2.770;2023-04-03T08:23:47;8.90;73.70
73572;DHT22;61854;48.510;-2.770;2023-04-03T08:26:14;8.90;73.50
73572;DHT22;61854;48.510;-2.770;2023-04-03T08:28:40;9.00;73.60
73572;DHT22;61854;48.510;-2.770;2023-04-03T08:31:07;9.00;72.60
73572;DHT22;61854;48.510;-2.770;2023-04-03T08:33:37;9.00;72.50
73572;DHT22;61854;48.510;-2.770;2023-04-03T08:36:06;8.90;72.80
73572;DHT22;61854;48.510;-2.770;2023-04-03T08:38:33;9.00;73.00
73572;DHT22;61854;48.510;-2.770;2023-04-03T08:41:00;8.90;71.60
73572;DHT22;61854;48.510;-2.770;2023-04-03T08:43:36;9.00;72.50
73572;DHT22;61854;48.510;-2.770;2023-04-03T08:46:06;9.10;71.30
73572;DHT22;61854;48.510;-2.770;2023-04-03T08:48:39;9.10;71.10
73572;DHT22;61854;48.510;-2.770;2023-04-03T08:51:14;9.10;71.10
73572;DHT22;61854;48.510;-2.770;2023-04-03T08:53:42;9.10;70.80
73572;DHT22;61854;48.510;-2.770;2023-04-03T08:56:09;9.10;71.10
73572;DHT22;61854;48.510;-2.770;2023-04-03T08:58:41;9.00;71.40
73572;DHT22;61854;48.510;-2.770;2023-04-03T09:01:19;9.10;71.60
73572;DHT22;61854;48.510;-2.770;2023-04-03T09:03:45;9.10;71.30
73572;DHT22;61854;48.510;-2.770;2023-04-03T09:06:12;9.20;71.40
73572;DHT22;61854;48.510;-2.770;2023-04-03T09:14:11;9.10;70.30
73572;DHT22;61854;48.510;-2.770;2023-04-03T09:21:55;9.10;71.00
73572;DHT22;61854;48.510;-2.770;2023-04-03T09:24:21;9.20;70.10
73572;DHT22;61854;48.510;-2.770;2023-04-03T09:29:24;9.40;70.40
73572;DHT22;61854;48.510;-2.770;2023-04-03T09:31:52;9.50;69.70
73572;DHT22;61854;48.510;-2.770;2023-04-03T09:34:23;9.60;69.20
73572;DHT22;61854;48.510;-2.770;2023-04-03T09:36:52;9.60;69.00
73572;DHT22;61854;48.510;-2.770;2023-04-03T09:39:25;9.60;68.80
73572;DHT22;61854;48.510;-2.770;2023-04-03T09:42:14;9.70;67.20
73572;DHT22;61854;48.510;-2.770;2023-04-03T09:44:37;9.60;67.80
73572;DHT22;61854;48.510;-2.770;2023-04-03T09:52:43;9.00;68.60
73572;DHT22;61854;48.510;-2.770;2023-04-03T09:55:16;8.90;70.20
73572;DHT22;61854;48.510;-2.770;2023-04-03T09:57:45;9.00;70.20
73572;DHT22;61854;48.510;-2.770;2023-04-03T10:00:22;9.00;70.30
73572;DHT22;61854;48.510;-2.770;2023-04-03T10:02:54;8.90;69.20
73572;DHT22;61854;48.510;-2.770;2023-04-03T10:05:28;8.90;70.00
73572;DHT22;61854;48.510;-2.770;2023-04-03T10:08:36;8.70;70.30
73572;DHT22;61854;48.510;-2.770;2023-04-03T10:10:43;8.60;70.70
73572;DHT22;61854;48.510;-2.770;2023-04-03T10:13:13;8.60;70.60
73572;DHT22;61854;48.510;-2.770;2023-04-03T10:15:59;8.60;70.70
73572;DHT22;61854;48.510;-2.770;2023-04-03T10:20:59;8.50;71.10
73572;DHT22;61854;48.510;-2.770;2023-04-03T10:23:28;8.60;70.80
73572;DHT22;61854;48.510;-2.770;2023-04-03T10:29:01;8.60;71.90
73572;DHT22;61854;48.510;-2.770;2023-04-03T10:36:41;8.70;72.30
73572;DHT22;61854;48.510;-2.770;2023-04-03T10:51:28;8.90;72.20
73572;DHT22;61854;48.510;-2.770;2023-04-03T10:56:40;9.00;73.40
73572;DHT22;61854;48.510;-2.770;2023-04-03T11:01:45;8.90;73.80
73572;DHT22;61854;48.510;-2.770;2023-04-03T11:04:11;8.90;74.10
73572;DHT22;61854;48.510;-2.770;2023-04-03T11:06:39;8.90;73.70
73572;DHT22;61854;48.510;-2.770;2023-04-03T11:09:18;8.90;74.10
73572;DHT22;61854;48.510;-2.770;2023-04-03T11:11:45;8.90;73.30
73572;DHT22;61854;48.510;-2.770;2023-04-03T11:16:48;8.90;73.30
73572;DHT22;61854;48.510;-2.770;2023-04-03T11:19:18;8.90;73.70
73572;DHT22;61854;48.510;-2.770;2023-04-03T11:24:34;9.00;73.60
73572;DHT22;61854;48.510;-2.770;2023-04-03T11:27:01;8.90;73.20
73572;DHT22;61854;48.510;-2.770;2023-04-03T11:29:31;8.90;72.50
73572;DHT22;61854;48.510;-2.770;2023-04-03T11:32:09;9.10;72.50
73572;DHT22;61854;48.510;-2.770;2023-04-03T11:34:47;9.10;73.60
73572;DHT22;61854;48.510;-2.770;2023-04-03T11:37:31;9.20;74.10
73572;DHT22;61854;48.510;-2.770;2023-04-03T11:40:13;9.30;72.90
73572;DHT22;61854;48.510;-2.770;2023-04-03T11:42:47;9.40;72.90
73572;DHT22;61854;48.510;-2.770;2023-04-03T11:47:55;9.40;73.50
73572;DHT22;61854;48.510;-2.770;2023-04-03T11:53:00;9.40;73.20
73572;DHT22;61854;48.510;-2.770;2023-04-03T11:55:41;9.50;73.30
73572;DHT22;61854;48.510;-2.770;2023-04-03T11:58:15;9.50;73.30
73572;DHT22;61854;48.510;-2.770;2023-04-03T12:05:53;9.70;73.70
73572;DHT22;61854;48.510;-2.770;2023-04-03T12:16:08;9.70;73.10
73572;DHT22;61854;48.510;-2.770;2023-04-03T12:18:53;9.80;73.50
73572;DHT22;61854;48.510;-2.770;2023-04-03T12:21:22;9.80;72.50
73572;DHT22;61854;48.510;-2.770;2023-04-03T12:26:21;9.60;73.30
73572;DHT22;61854;48.510;-2.770;2023-04-03T12:28:48;9.70;74.00
73572;DHT22;61854;48.510;-2.770;2023-04-03T12:31:14;9.70;73.40
73572;DHT22;61854;48.510;-2.770;2023-04-03T12:33:46;9.80;73.80
73572;DHT22;61854;48.510;-2.770;2023-04-03T12:36:26;10.00;73.30
73572;DHT22;61854;48.510;-2.770;2023-04-03T12:44:37;10.20;73.00
73572;DHT22;61854;48.510;-2.770;2023-04-03T12:47:16;10.30;73.00
73572;DHT22;61854;48.510;-2.770;2023-04-03T12:49:44;10.50;72.30
73572;DHT22;61854;48.510;-2.770;2023-04-03T12:52:45;10.70;72.10
73572;DHT22;61854;48.510;-2.770;2023-04-03T12:55:03;10.80;70.80
73572;DHT22;61854;48.510;-2.770;2023-04-03T12:57:32;10.80;70.70
73572;DHT22;61854;48.510;-2.770;2023-04-03T12:59:58;11.00;70.40
73572;DHT22;61854;48.510;-2.770;2023-04-03T13:02:32;11.00;71.40
73572;DHT22;61854;48.510;-2.770;2023-04-03T13:05:07;11.10;69.30
73572;DHT22;61854;48.510;-2.770;2023-04-03T13:07:34;11.20;69.20
73572;DHT22;61854;48.510;-2.770;2023-04-03T13:12:31;11.30;68.50
73572;DHT22;61854;48.510;-2.770;2023-04-03T13:14:59;11.50;67.90
73572;DHT22;61854;48.510;-2.770;2023-04-03T13:17:26;11.60;67.90
73572;DHT22;61854;48.510;-2.770;2023-04-03T13:19:53;11.70;68.20
73572;DHT22;61854;48.510;-2.770;2023-04-03T13:22:24;11.80;67.20
73572;DHT22;61854;48.510;-2.770;2023-04-03T13:24:52;12.10;68.00
73572;DHT22;61854;48.510;-2.770;2023-04-03T13:27:19;12.40;66.00
73572;DHT22;61854;48.510;-2.770;2023-04-03T13:29:48;12.80;64.50
73572;DHT22;61854;48.510;-2.770;2023-04-03T13:32:19;13.30;62.60
73572;DHT22;61854;48.510;-2.770;2023-04-03T13:34:45;13.70;60.50
73572;DHT22;61854;48.510;-2.770;2023-04-03T13:37:24;13.90;58.50
73572;DHT22;61854;48.510;-2.770;2023-04-03T13:42:35;14.30;56.20
73572;DHT22;61854;48.510;-2.770;2023-04-03T13:45:19;14.50;55.80
73572;DHT22;61854;48.510;-2.770;2023-04-03T13:47:46;14.60;54.80
73572;DHT22;61854;48.510;-2.770;2023-04-03T13:52:48;14.70;54.10
73572;DHT22;61854;48.510;-2.770;2023-04-03T13:57:48;15.00;52.80
73572;DHT22;61854;48.510;-2.770;2023-04-03T14:00:35;15.20;52.30
73572;DHT22;61854;48.510;-2.770;2023-04-03T14:03:16;15.40;51.40
73572;DHT22;61854;48.510;-2.770;2023-04-03T14:05:44;15.80;50.50
73572;DHT22;61854;48.510;-2.770;2023-04-03T14:08:10;16.10;48.90
73572;DHT22;61854;48.510;-2.770;2023-04-03T14:10:36;16.20;48.60
73572;DHT22;61854;48.510;-2.770;2023-04-03T14:13:02;16.20;48.10
73572;DHT22;61854;48.510;-2.770;2023-04-03T14:15:29;16.40;47.70
73572;DHT22;61854;48.510;-2.770;2023-04-03T14:17:55;16.50;47.30
73572;DHT22;61854;48.510;-2.770;2023-04-03T14:20:22;16.60;46.70
73572;DHT22;61854;48.510;-2.770;2023-04-03T14:22:49;16.80;47.00
73572;DHT22;61854;48.510;-2.770;2023-04-03T14:25:16;16.90;46.80
73572;DHT22;61854;48.510;-2.770;2023-04-03T14:27:43;16.90;45.10
73572;DHT22;61854;48.510;-2.770;2023-04-03T14:30:22;17.20;44.50
73572;DHT22;61854;48.510;-2.770;2023-04-03T14:32:48;17.30;44.40
73572;DHT22;61854;48.510;-2.770;2023-04-03T14:35:15;17.50;44.00
73572;DHT22;61854;48.510;-2.770;2023-04-03T14:37:41;17.60;44.00
73572;DHT22;61854;48.510;-2.770;2023-04-03T14:40:12;17.50;42.80
73572;DHT22;61854;48.510;-2.770;2023-04-03T14:42:38;17.40;43.40
73572;DHT22;61854;48.510;-2.770;2023-04-03T14:45:05;17.70;43.10
73572;DHT22;61854;48.510;-2.770;2023-04-03T14:47:34;18.10;41.80
73572;DHT22;61854;48.510;-2.770;2023-04-03T14:50:04;18.10;41.30
73572;DHT22;61854;48.510;-2.770;2023-04-03T14:52:33;18.30;40.00
73572;DHT22;61854;48.510;-2.770;2023-04-03T14:54:59;18.50;41.60
73572;DHT22;61854;48.510;-2.770;2023-04-03T14:57:26;18.40;40.50
73572;DHT22;61854;48.510;-2.770;2023-04-03T14:59:52;18.40;40.80
73572;DHT22;61854;48.510;-2.770;2023-04-03T15:04:49;18.40;40.40
73572;DHT22;61854;48.510;-2.770;2023-04-03T15:07:15;18.40;40.90
73572;DHT22;61854;48.510;-2.770;2023-04-03T15:09:41;18.50;40.60
73572;DHT22;61854;48.510;-2.770;2023-04-03T15:12:07;18.50;40.50
73572;DHT22;61854;48.510;-2.770;2023-04-03T15:14:33;18.60;40.90
73572;DHT22;61854;48.510;-2.770;2023-04-03T15:16:58;18.80;39.80
73572;DHT22;61854;48.510;-2.770;2023-04-03T15:19:24;18.90;39.30
73572;DHT22;61854;48.510;-2.770;2023-04-03T15:21:49;19.20;39.10
73572;DHT22;61854;48.510;-2.770;2023-04-03T15:24:16;19.20;38.70
73572;DHT22;61854;48.510;-2.770;2023-04-03T15:26:41;19.20;37.90
73572;DHT22;61854;48.510;-2.770;2023-04-03T15:29:07;19.20;37.80
73572;DHT22;61854;48.510;-2.770;2023-04-03T15:31:33;19.20;38.20
73572;DHT22;61854;48.510;-2.770;2023-04-03T15:33:58;19.40;37.70
73572;DHT22;61854;48.510;-2.770;2023-04-03T15:36:24;19.50;36.90
73572;DHT22;61854;48.510;-2.770;2023-04-03T15:38:49;19.50;37.20
73572;DHT22;61854;48.510;-2.770;2023-04-03T15:41:15;19.60;36.90
73572;DHT22;61854;48.510;-2.770;2023-04-03T15:43:41;19.70;36.50
73572;DHT22;61854;48.510;-2.770;2023-04-03T15:46:06;19.70;36.60
73572;DHT22;61854;48.510;-2.770;2023-04-03T15:48:32;19.80;36.20
73572;DHT22;61854;48.510;-2.770;2023-04-03T15:50:58;19.70;36.40
73572;DHT22;61854;48.510;-2.770;2023-04-03T15:53:23;19.80;36.60
73572;DHT22;61854;48.510;-2.770;2023-04-03T15:55:49;19.90;36.40
73572;DHT22;61854;48.510;-2.770;2023-04-03T15:58:14;19.80;35.90
73572;DHT22;61854;48.510;-2.770;2023-04-03T16:00:40;19.80;36.90
73572;DHT22;61854;48.510;-2.770;2023-04-03T16:03:08;20.00;35.80
73572;DHT22;61854;48.510;-2.770;2023-04-03T16:05:35;20.10;36.00
73572;DHT22;61854;48.510;-2.770;2023-04-03T16:08:01;20.10;35.80
73572;DHT22;61854;48.510;-2.770;2023-04-03T16:10:27;20.20;35.70
73572;DHT22;61854;48.510;-2.770;2023-04-03T16:12:53;20.10;35.40
73572;DHT22;61854;48.510;-2.770;2023-04-03T16:15:18;20.00;35.50
73572;DHT22;61854;48.510;-2.770;2023-04-03T16:17:44;20.00;35.70
73572;DHT22;61854;48.510;-2.770;2023-04-03T16:20:11;20.00;35.70
73572;DHT22;61854;48.510;-2.770;2023-04-03T16:22:37;20.10;35.70
73572;DHT22;61854;48.510;-2.770;2023-04-03T16:25:03;20.30;36.30
73572;DHT22;61854;48.510;-2.770;2023-04-03T16:27:29;20.30;36.00
73572;DHT22;61854;48.510;-2.770;2023-04-03T16:29:56;20.20;36.70
73572;DHT22;61854;48.510;-2.770;2023-04-03T16:32:22;20.20;37.20
73572;DHT22;61854;48.510;-2.770;2023-04-03T16:34:48;20.10;37.60
73572;DHT22;61854;48.510;-2.770;2023-04-03T16:37:13;19.90;38.30
73572;DHT22;61854;48.510;-2.770;2023-04-03T16:39:39;19.80;38.60
73572;DHT22;61854;48.510;-2.770;2023-04-03T16:42:05;20.20;38.40
73572;DHT22;61854;48.510;-2.770;2023-04-03T16:44:30;20.10;38.30
73572;DHT22;61854;48.510;-2.770;2023-04-03T16:46:56;20.10;38.30
73572;DHT22;61854;48.510;-2.770;2023-04-03T16:49:22;20.30;38.20
73572;DHT22;61854;48.510;-2.770;2023-04-03T16:51:48;20.30;37.80
73572;DHT22;61854;48.510;-2.770;2023-04-03T16:54:13;20.20;37.90
73572;DHT22;61854;48.510;-2.770;2023-04-03T16:56:39;20.30;38.40
73572;DHT22;61854;48.510;-2.770;2023-04-03T16:59:05;20.10;38.10
73572;DHT22;61854;48.510;-2.770;2023-04-03T17:01:31;19.90;38.70
73572;DHT22;61854;48.510;-2.770;2023-04-03T17:03:56;19.80;39.30
73572;DHT22;61854;48.510;-2.770;2023-04-03T17:06:22;19.90;39.60